ビリニュス の空港の天気 - METARとTAF

ビリニュス国際空港 ( EYVI / VNO ) - リトアニア ビリニュス
飛行場実況気象(Metar)
観測時間08/16 09:20 EEST (08/16 06:20 UTC)
風向・風速西北西 2m/s
視程10km以上
天気現象
全天を覆う雲 雲底高度 150m
気温17℃
湿度88%
気圧1019hPa
METAREYVI 160620Z 29003KT 250V330 9999 OVC005 17/15 Q1019 BECMG BKN010
過去の天気等 Google飛行場航空写真 Wunderground天気予報

過去48時間のMETAR

飛行場予報(TAF)
発表時間: 8/16 08:08 EEST (8/16 05:08 UTC)
予報対象時間: 16日9時 EEST ~ 17日9時 EEST
風向・風速北西 4m/s
視程10km以上
全天の8割程度の雲 雲底高度 150m
16日10時 EEST ~ 16日11時 EEST に徐々に
全天の8割程度の雲 雲底高度 760m
16日11時 EEST ~ 16日18時 EEST に一時的に
全天の4割程度の積乱雲 雲底高度 910m
16日21時 EEST ~ 16日23時 EEST に徐々に
風向・風速東 2m/s
なし
17日3時 EEST ~ 17日7時 EEST に一時的に
全天の8割程度の雲 雲底高度 90m
TAF EYVI 160508Z 1606/1706 31008KT 9999 BKN005
BECMG 1607/1608 BKN025
TEMPO 1608/1615 SCT030CB
BECMG 1618/1620 09004KT NSC
TEMPO 1700/1704 BKN003